Strona główna
METAR-TAF:

METAR-TAF

Lotnisko :

Pattani, Tajlandia

Szerokość geograficzna: 06-47-08N, Długość geograficzna: 101-09-13E, wysokość: 2 m

METAR: brakujący

czas: 10:45 (03:45 UTC)

Prognoza

Raport powstał 4 godziny i 45 minut temu, godzina 23:00 UTC
Prognoza ważna od 30 godzina 00 UTC do 30 godzina 24 UTC
Wiatr 3 kt od wschodnio-południowy wschód
Widzialność 10 km lub więcej
Mało chmury na wysokości 2000 ft
Stopniowe zmiany
od 30 godzina 04 UTC do 30 godzina 06 UTC
Wiatr 10 kt od północny wschód
Stopniowe zmiany
od 30 godzina 14 UTC do 30 godzina 16 UTC
Wiatr 3 kt od wschodnio-południowy wschód

TAF: VTSK 292300Z 3000/3024 12003KT 9999 FEW020 BECMG 3004/3006 05010KT BECMG 3014/3016 12003KT

Obserwacja i prognoza pogody dla ponad 4000 lotnisk (raport METAR i TAF).

Dostępne stacje oznaczono żółtymi i czerwonymi punktami na mapie.

Najedź kursorem aby zobaczyć nazwę stacji.

Kliknij aby zobaczyć obserwacje i prognozy pogody.

Aby zmienić mapę: kliknij na zielony przycisk z czarnym krzyżykiem, aby powiększyć; na zielony przycisk z myślnikiem, aby pomniejszyć; na zielone strzałki, aby przejść do map sąsiednich.


METAR-TAF: